createdAt,value
2024-05-09T00:00:36.231Z,10.04
2024-05-09T00:03:11.039Z,10.00
2024-05-09T00:05:42.341Z,10.04
2024-05-09T00:08:10.424Z,10.02
2024-05-09T00:10:39.173Z,10.00
2024-05-09T00:13:07.550Z,10.02
2024-05-09T00:15:35.056Z,9.76
2024-05-09T00:18:02.640Z,9.99
2024-05-09T00:20:37.383Z,9.93
2024-05-09T00:23:07.953Z,9.96
2024-05-09T00:25:35.498Z,9.95
2024-05-09T00:28:03.057Z,9.92
2024-05-09T00:30:34.526Z,9.96
2024-05-09T00:33:05.340Z,9.76
2024-05-09T00:35:33.063Z,9.89
2024-05-09T00:38:00.158Z,9.79
2024-05-09T00:40:37.287Z,9.79
2024-05-09T00:43:06.956Z,9.33
2024-05-09T00:45:34.676Z,9.83
2024-05-09T00:48:02.987Z,9.71
2024-05-09T00:50:35.984Z,9.82
2024-05-09T00:53:06.082Z,9.68
2024-05-09T00:55:35.184Z,9.81
2024-05-09T00:58:02.643Z,9.80
2024-05-09T01:00:37.811Z,9.77
2024-05-09T01:03:07.501Z,9.74
2024-05-09T01:05:35.404Z,9.59
2024-05-09T01:08:03.058Z,9.56
2024-05-09T01:10:34.502Z,9.46
2024-05-09T01:13:03.472Z,9.56
2024-05-09T01:15:30.075Z,9.66
2024-05-09T01:17:57.682Z,9.60
2024-05-09T01:20:36.424Z,9.62
2024-05-09T01:23:09.573Z,9.42
2024-05-09T01:25:36.836Z,9.63
2024-05-09T01:28:03.906Z,9.04
2024-05-09T01:30:34.995Z,9.18
2024-05-09T01:33:05.382Z,9.20
2024-05-09T01:35:33.298Z,9.22
2024-05-09T01:37:59.975Z,9.59
2024-05-09T01:40:36.265Z,9.54
2024-05-09T01:43:05.797Z,9.32
2024-05-09T01:45:32.397Z,9.32
2024-05-09T01:47:59.547Z,9.32
2024-05-09T01:50:37.218Z,9.27
2024-05-09T01:53:08.364Z,8.68
2024-05-09T01:55:35.112Z,9.17
2024-05-09T01:58:01.688Z,9.24
2024-05-09T02:00:37.122Z,9.14
2024-05-09T02:03:14.901Z,9.18
2024-05-09T02:05:45.227Z,9.18
2024-05-09T02:08:22.228Z,9.23
2024-05-09T02:10:50.373Z,9.20
2024-05-09T02:13:17.414Z,9.18
2024-05-09T02:15:44.265Z,9.15
2024-05-09T02:18:11.563Z,9.10
2024-05-09T02:20:40.608Z,9.08
2024-05-09T02:23:08.943Z,9.05
2024-05-09T02:25:35.801Z,8.99
2024-05-09T02:28:02.375Z,8.98
2024-05-09T02:30:38.267Z,8.92
2024-05-09T02:33:09.514Z,8.42
2024-05-09T02:35:37.599Z,8.89
2024-05-09T02:38:04.524Z,8.84
2024-05-09T02:40:37.495Z,8.81
2024-05-09T02:43:12.700Z,8.04
2024-05-09T02:45:40.436Z,8.74
2024-05-09T02:48:10.062Z,8.73
2024-05-09T02:50:39.520Z,8.72
2024-05-09T02:53:07.822Z,8.68
2024-05-09T02:55:35.000Z,8.50
2024-05-09T02:58:01.674Z,8.63
2024-05-09T03:00:36.774Z,8.51
2024-05-09T03:03:12.501Z,8.42
2024-05-09T03:05:41.616Z,8.28
2024-05-09T03:08:08.535Z,8.36
2024-05-09T03:10:37.518Z,8.49
2024-05-09T03:13:09.877Z,8.15
2024-05-09T03:15:36.776Z,8.43
2024-05-09T03:18:04.698Z,8.35
2024-05-09T03:20:34.892Z,8.35
2024-05-09T03:23:03.382Z,8.33
2024-05-09T03:25:30.272Z,8.08
2024-05-09T03:27:56.889Z,8.35
2024-05-09T03:30:38.137Z,8.35
2024-05-09T03:33:16.786Z,7.85
2024-05-09T03:35:44.213Z,8.22
2024-05-09T03:38:10.914Z,8.26
2024-05-09T03:40:47.810Z,8.24
2024-05-09T03:43:15.473Z,8.13
2024-05-09T03:45:42.830Z,7.75
2024-05-09T03:48:10.556Z,8.21
2024-05-09T03:50:37.782Z,8.18
2024-05-09T03:53:05.165Z,8.17
2024-05-09T03:55:32.100Z,8.13
2024-05-09T03:57:59.125Z,7.93
2024-05-09T04:00:34.244Z,8.12
2024-05-09T04:03:07.280Z,8.01
2024-05-09T04:05:36.730Z,7.99
2024-05-09T04:08:03.463Z,8.02
2024-05-09T04:10:33.640Z,8.23
2024-05-09T04:13:02.667Z,8.24
2024-05-09T04:15:29.801Z,8.27
2024-05-09T04:17:56.758Z,8.30
2024-05-09T04:20:33.484Z,8.21
2024-05-09T04:23:11.806Z,8.25
2024-05-09T04:25:41.821Z,8.30
2024-05-09T04:28:08.453Z,8.21
2024-05-09T04:30:39.189Z,8.19
2024-05-09T04:33:10.685Z,6.95
2024-05-09T04:35:39.347Z,8.66
2024-05-09T04:38:06.552Z,8.58
2024-05-09T04:40:36.186Z,8.66
2024-05-09T04:43:13.353Z,9.24
2024-05-09T04:45:39.934Z,9.37
2024-05-09T04:48:07.282Z,9.93
2024-05-09T04:50:37.779Z,10.34
2024-05-09T04:53:08.484Z,9.38
2024-05-09T04:55:36.558Z,10.87
2024-05-09T04:58:03.471Z,10.82
2024-05-09T05:00:35.977Z,11.06
2024-05-09T05:03:10.610Z,11.01
2024-05-09T05:05:43.640Z,11.03
2024-05-09T05:08:16.264Z,11.07
2024-05-09T05:10:44.219Z,11.04
2024-05-09T05:13:20.879Z,11.03
2024-05-09T05:15:50.034Z,11.13
2024-05-09T05:18:17.951Z,11.14
2024-05-09T05:20:45.146Z,11.18
2024-05-09T05:23:13.718Z,11.38
2024-05-09T05:25:44.074Z,11.51
2024-05-09T05:28:11.215Z,11.62
2024-05-09T05:30:38.642Z,11.78
2024-05-09T05:33:07.222Z,11.56
2024-05-09T05:35:35.990Z,12.16
2024-05-09T05:38:09.404Z,12.38
2024-05-09T05:40:40.547Z,13.09
2024-05-09T05:43:10.286Z,13.19
2024-05-09T05:45:37.481Z,14.50
2024-05-09T05:48:06.136Z,15.05
2024-05-09T05:50:36.556Z,16.31
2024-05-09T05:53:09.582Z,17.08
2024-05-09T05:55:39.207Z,17.85
2024-05-09T05:58:09.470Z,18.60
2024-05-09T06:00:39.118Z,19.38
2024-05-09T06:03:12.498Z,19.91
2024-05-09T06:05:40.549Z,20.74
2024-05-09T06:08:07.853Z,21.47
2024-05-09T06:10:38.622Z,22.13
2024-05-09T06:13:08.847Z,22.54
2024-05-09T06:15:35.401Z,23.08
2024-05-09T06:18:05.672Z,23.45
2024-05-09T06:20:36.461Z,23.81
2024-05-09T06:23:08.991Z,24.35
2024-05-09T06:25:36.268Z,24.28
2024-05-09T06:28:03.562Z,24.79
2024-05-09T06:30:38.007Z,25.62
2024-05-09T06:33:08.847Z,26.14
2024-05-09T06:35:36.363Z,26.69
2024-05-09T06:38:03.306Z,26.74
2024-05-09T06:40:37.175Z,27.13
2024-05-09T06:43:13.615Z,27.54
2024-05-09T06:45:40.499Z,28.27
2024-05-09T06:48:08.621Z,28.66
2024-05-09T06:50:38.091Z,29.15
2024-05-09T06:53:06.740Z,29.43
2024-05-09T06:55:33.446Z,29.99
2024-05-09T06:58:00.048Z,30.55
2024-05-09T07:00:34.818Z,30.94
2024-05-09T07:03:16.055Z,31.20
2024-05-09T07:05:45.798Z,31.49
2024-05-09T07:08:13.231Z,31.67
2024-05-09T07:10:40.150Z,31.64
2024-05-09T07:13:14.952Z,31.90
2024-05-09T07:15:42.269Z,32.08
2024-05-09T07:18:13.899Z,32.23
2024-05-09T07:20:41.335Z,31.93
2024-05-09T07:23:12.596Z,32.63
2024-05-09T07:25:40.702Z,32.80
2024-05-09T07:28:12.070Z,33.50
2024-05-09T07:30:38.688Z,33.74
2024-05-09T07:33:05.831Z,34.50
2024-05-09T07:35:32.824Z,35.26
2024-05-09T07:37:59.739Z,34.98
2024-05-09T07:40:33.251Z,35.49
2024-05-09T07:43:14.098Z,35.38
2024-05-09T07:45:50.541Z,35.40
2024-05-09T07:53:39.030Z,35.84
2024-05-09T07:56:09.735Z,36.78
2024-05-09T07:58:37.333Z,36.96
2024-05-09T08:01:04.338Z,36.18
2024-05-09T08:03:31.618Z,36.26
2024-05-09T08:05:58.195Z,36.51
2024-05-09T08:08:24.911Z,36.19
2024-05-09T08:10:51.665Z,35.81
2024-05-09T08:13:18.499Z,36.54
2024-05-09T08:15:45.249Z,36.98
2024-05-09T08:18:12.218Z,37.14
2024-05-09T08:20:40.060Z,37.48
2024-05-09T08:23:07.089Z,37.19
2024-05-09T08:25:33.823Z,37.48
2024-05-09T08:28:00.674Z,37.29
2024-05-09T08:30:33.628Z,37.24
2024-05-09T08:33:04.619Z,37.36
2024-05-09T08:35:32.034Z,37.45
2024-05-09T08:37:59.057Z,37.62
2024-05-09T08:40:33.324Z,38.01
2024-05-09T08:43:03.050Z,37.89
2024-05-09T08:45:31.189Z,38.40
2024-05-09T08:48:00.211Z,38.91
2024-05-09T08:50:35.436Z,38.83
2024-05-09T08:53:05.558Z,38.51
2024-05-09T08:55:32.451Z,37.27
2024-05-09T08:58:01.898Z,35.69
2024-05-09T09:00:36.519Z,34.72
2024-05-09T09:03:09.023Z,34.78
2024-05-09T09:05:39.325Z,35.59
2024-05-09T09:08:08.396Z,36.48
2024-05-09T09:10:35.761Z,36.99
2024-05-09T09:13:04.921Z,37.83
2024-05-09T09:15:32.642Z,38.29
2024-05-09T09:18:01.056Z,38.91
2024-05-09T09:20:35.839Z,39.34
2024-05-09T09:23:04.417Z,39.88
2024-05-09T09:25:31.427Z,40.49
2024-05-09T09:27:58.632Z,40.45
2024-05-09T09:30:35.145Z,41.22
2024-05-09T09:33:08.662Z,40.94
2024-05-09T09:35:38.589Z,41.25
2024-05-09T09:38:07.131Z,41.65
2024-05-09T09:40:39.078Z,42.00
2024-05-09T09:43:22.397Z,41.61
2024-05-09T09:45:55.113Z,41.10
2024-05-09T09:48:22.844Z,40.35
2024-05-09T09:50:51.495Z,41.24
2024-05-09T09:53:18.810Z,41.64
2024-05-09T09:55:46.335Z,41.79
2024-05-09T09:58:16.294Z,42.13
2024-05-09T10:00:43.315Z,42.17
2024-05-09T10:03:10.214Z,42.23
2024-05-09T10:05:37.537Z,41.65
2024-05-09T10:08:07.251Z,39.76
2024-05-09T10:10:35.412Z,39.50
2024-05-09T10:13:08.946Z,40.42
2024-05-09T10:15:46.541Z,40.83
2024-05-09T10:18:14.356Z,40.70
2024-05-09T10:20:45.166Z,41.17
2024-05-09T10:23:28.568Z,41.35
2024-05-09T10:26:00.085Z,41.91
2024-05-09T10:28:31.728Z,41.81
2024-05-09T10:31:13.318Z,41.40
2024-05-09T10:33:51.861Z,41.53
2024-05-09T10:36:19.295Z,40.95
2024-05-09T10:38:46.063Z,40.98
2024-05-09T10:41:13.032Z,40.67
2024-05-09T10:43:41.031Z,40.53
2024-05-09T10:46:10.503Z,40.18
2024-05-09T10:48:38.313Z,41.19
2024-05-09T10:51:05.563Z,40.99
2024-05-09T10:53:32.271Z,41.15
2024-05-09T10:56:01.914Z,41.23
2024-05-09T10:58:28.759Z,41.32
2024-05-09T11:00:58.075Z,41.28
2024-05-09T11:03:25.780Z,41.31
2024-05-09T11:05:53.411Z,39.97
2024-05-09T11:08:22.113Z,39.14
2024-05-09T11:10:53.647Z,38.50
2024-05-09T11:13:30.114Z,39.28
2024-05-09T11:15:56.929Z,39.64
2024-05-09T11:18:26.464Z,39.61
2024-05-09T11:20:56.153Z,40.16
2024-05-09T11:23:26.284Z,39.80
2024-05-09T11:25:54.925Z,39.01
2024-05-09T11:28:22.573Z,38.02
2024-05-09T11:30:50.521Z,37.40
2024-05-09T11:33:19.748Z,36.66
2024-05-09T11:35:47.235Z,35.97
2024-05-09T11:38:14.022Z,36.60
2024-05-09T11:40:40.888Z,36.74
2024-05-09T11:43:07.768Z,37.00
2024-05-09T11:45:34.489Z,36.87
2024-05-09T11:48:01.441Z,35.54
2024-05-09T11:50:33.015Z,33.62
2024-05-09T11:53:02.428Z,33.37
2024-05-09T11:55:29.331Z,32.36
2024-05-09T11:57:56.902Z,32.13
2024-05-09T12:00:29.785Z,32.22
2024-05-09T12:03:05.313Z,31.92
2024-05-09T12:05:33.075Z,31.23
2024-05-09T12:08:00.752Z,31.77
2024-05-09T12:10:33.196Z,31.90
2024-05-09T12:13:02.654Z,31.96
2024-05-09T12:15:30.070Z,31.75
2024-05-09T12:17:59.077Z,31.69
2024-05-09T12:20:35.674Z,31.55
2024-05-09T12:23:05.485Z,31.58
2024-05-09T12:25:32.235Z,31.07
2024-05-09T12:27:58.980Z,30.48
2024-05-09T12:30:35.163Z,30.28
2024-05-09T12:33:06.168Z,29.72
2024-05-09T12:35:33.184Z,28.99
2024-05-09T12:37:59.999Z,28.77
2024-05-09T12:40:34.696Z,28.52
2024-05-09T12:43:04.990Z,28.22
2024-05-09T12:45:32.180Z,27.91
2024-05-09T12:47:59.462Z,28.33
2024-05-09T12:50:32.286Z,28.34
2024-05-09T12:53:01.843Z,28.19
2024-05-09T12:55:33.510Z,28.07
2024-05-09T12:58:06.735Z,27.68
2024-05-09T13:00:34.501Z,27.58
2024-05-09T13:03:01.648Z,27.31
2024-05-09T13:05:28.824Z,27.31
2024-05-09T13:07:56.924Z,27.08
2024-05-09T13:10:31.185Z,26.35
2024-05-09T13:13:00.923Z,26.64
2024-05-09T13:15:28.367Z,26.56
2024-05-09T13:17:58.103Z,26.48
2024-05-09T13:20:32.406Z,26.56
2024-05-09T13:23:02.648Z,26.16
2024-05-09T13:25:29.381Z,26.59
2024-05-09T13:27:56.876Z,26.70
2024-05-09T13:30:29.889Z,26.74
2024-05-09T13:33:06.071Z,26.86
2024-05-09T13:35:35.485Z,26.83
2024-05-09T13:38:03.228Z,26.72
2024-05-09T13:40:34.292Z,26.14
2024-05-09T13:43:05.792Z,26.35
2024-05-09T13:45:33.277Z,26.43
2024-05-09T13:48:00.636Z,26.29
2024-05-09T13:50:33.647Z,26.42
2024-05-09T13:53:03.598Z,25.94
2024-05-09T13:55:30.328Z,26.01
2024-05-09T13:57:57.037Z,25.48
2024-05-09T14:00:37.867Z,25.40
2024-05-09T14:03:10.588Z,25.45
2024-05-09T14:05:37.410Z,24.85
2024-05-09T14:08:04.486Z,25.29
2024-05-09T14:10:32.306Z,25.28
2024-05-09T14:13:00.251Z,25.23
2024-05-09T14:15:27.049Z,25.10
2024-05-09T14:17:54.606Z,25.08
2024-05-09T14:22:50.898Z,24.90
2024-05-09T14:25:17.735Z,24.76
2024-05-09T14:27:44.483Z,24.07
2024-05-09T14:30:18.258Z,24.47
2024-05-09T14:32:52.930Z,24.15
2024-05-09T14:35:19.813Z,24.22
2024-05-09T14:37:46.641Z,24.00
2024-05-09T14:40:30.334Z,23.86
2024-05-09T14:43:03.155Z,24.03
2024-05-09T14:45:30.300Z,23.94
2024-05-09T14:47:57.212Z,23.61
2024-05-09T14:50:32.554Z,23.77
2024-05-09T14:53:03.577Z,23.52
2024-05-09T14:55:30.728Z,23.57
2024-05-09T14:57:57.563Z,23.57
2024-05-09T15:00:28.950Z,23.36
2024-05-09T15:03:00.506Z,23.50
2024-05-09T15:05:27.499Z,23.63
2024-05-09T15:07:54.295Z,23.38
2024-05-09T15:10:27.322Z,23.68
2024-05-09T15:13:00.959Z,23.72
2024-05-09T15:15:27.722Z,23.66
2024-05-09T15:17:54.989Z,23.47
2024-05-09T15:20:30.768Z,23.53
2024-05-09T15:23:01.926Z,23.71
2024-05-09T15:25:28.739Z,23.79
2024-05-09T15:27:55.571Z,23.86
2024-05-09T15:30:30.207Z,23.96
2024-05-09T15:32:59.460Z,24.10
2024-05-09T15:35:26.172Z,24.14
2024-05-09T15:37:52.802Z,24.18
2024-05-09T15:40:26.839Z,24.53
2024-05-09T15:43:02.597Z,24.49
2024-05-09T15:45:29.590Z,24.55
2024-05-09T15:47:57.199Z,24.85
2024-05-09T15:50:35.253Z,25.07
2024-05-09T15:53:06.321Z,24.98
2024-05-09T15:55:34.187Z,24.88
2024-05-09T15:58:02.659Z,24.68
2024-05-09T16:00:37.364Z,23.07
2024-05-09T16:03:07.788Z,24.19
2024-05-09T16:05:34.735Z,23.70
2024-05-09T16:08:01.564Z,23.89
2024-05-09T16:10:32.697Z,23.59
2024-05-09T16:13:01.157Z,23.44
2024-05-09T16:15:27.980Z,23.42
2024-05-09T16:17:55.392Z,23.32
2024-05-09T16:20:33.838Z,22.53
2024-05-09T16:23:06.354Z,22.85
2024-05-09T16:25:33.137Z,22.62
2024-05-09T16:28:00.181Z,22.53
2024-05-09T16:30:34.170Z,22.48
2024-05-09T16:33:04.425Z,22.25
2024-05-09T16:35:31.954Z,21.63
2024-05-09T16:37:58.717Z,21.90
2024-05-09T16:40:34.420Z,21.84
2024-05-09T16:43:06.116Z,21.27
2024-05-09T16:45:33.299Z,21.82
2024-05-09T16:48:00.623Z,21.66
2024-05-09T16:50:32.706Z,21.72
2024-05-09T16:53:02.028Z,21.48
2024-05-09T16:55:29.045Z,20.94
2024-05-09T16:57:56.883Z,21.25
2024-05-09T17:00:34.920Z,21.27
2024-05-09T17:03:08.345Z,21.07
2024-05-09T17:05:35.871Z,21.09
2024-05-09T17:08:03.156Z,20.90
2024-05-09T17:10:33.583Z,20.38
2024-05-09T17:13:02.917Z,20.89
2024-05-09T17:15:29.963Z,20.88
2024-05-09T17:17:56.788Z,20.58
2024-05-09T17:20:31.322Z,20.69
2024-05-09T17:23:02.314Z,20.17
2024-05-09T17:25:29.415Z,20.23
2024-05-09T17:27:56.612Z,20.59
2024-05-09T17:30:29.233Z,20.62
2024-05-09T17:33:02.494Z,20.60
2024-05-09T17:35:29.444Z,20.41
2024-05-09T17:37:56.578Z,20.52
2024-05-09T17:40:30.078Z,20.49
2024-05-09T17:43:00.233Z,20.39
2024-05-09T17:45:26.933Z,20.32
2024-05-09T17:47:53.862Z,20.26
2024-05-09T17:50:27.488Z,20.17
2024-05-09T17:53:00.630Z,20.06
2024-05-09T17:55:27.498Z,19.97
2024-05-09T17:57:54.408Z,19.87
2024-05-09T18:00:29.294Z,19.67
2024-05-09T18:03:04.082Z,19.72
2024-05-09T18:05:31.190Z,19.68
2024-05-09T18:07:58.066Z,19.61
2024-05-09T18:10:32.568Z,19.50
2024-05-09T18:13:03.734Z,19.45
2024-05-09T18:15:30.568Z,19.35
2024-05-09T18:17:57.576Z,19.15
2024-05-09T18:20:33.154Z,19.03
2024-05-09T18:23:07.980Z,19.13
2024-05-09T18:25:34.673Z,19.06
2024-05-09T18:28:04.835Z,18.84
2024-05-09T18:30:35.137Z,18.88
2024-05-09T18:33:05.433Z,18.79
2024-05-09T18:35:33.331Z,18.53
2024-05-09T18:38:00.524Z,18.59
2024-05-09T18:40:33.729Z,18.50
2024-05-09T18:43:06.112Z,18.23
2024-05-09T18:45:34.478Z,18.14
2024-05-09T18:48:01.296Z,18.14
2024-05-09T18:50:34.531Z,18.02
2024-05-09T18:53:08.740Z,17.90
2024-05-09T18:55:36.173Z,17.78
2024-05-09T18:58:04.526Z,17.36
2024-05-09T19:00:35.895Z,17.57
2024-05-09T19:03:08.943Z,17.44
2024-05-09T19:05:38.221Z,17.34
2024-05-09T19:08:05.673Z,17.21
2024-05-09T19:10:34.919Z,16.95
2024-05-09T19:13:06.838Z,16.98
2024-05-09T19:15:37.654Z,16.88
2024-05-09T19:18:04.841Z,16.44
2024-05-09T19:20:34.416Z,16.73
2024-05-09T19:23:02.891Z,16.59
2024-05-09T19:25:29.641Z,16.40
2024-05-09T19:27:56.244Z,16.41
2024-05-09T19:30:30.427Z,16.04
2024-05-09T19:33:05.833Z,16.02
2024-05-09T19:35:32.822Z,16.20
2024-05-09T19:37:59.643Z,16.13
2024-05-09T19:40:31.373Z,15.88
2024-05-09T19:43:01.528Z,15.95
2024-05-09T19:45:28.818Z,15.87
2024-05-09T19:47:55.957Z,15.78
2024-05-09T19:50:30.986Z,15.63
2024-05-09T19:53:04.155Z,15.63
2024-05-09T19:55:30.737Z,15.52
2024-05-09T19:57:57.881Z,15.42
2024-05-09T20:00:32.573Z,15.45
2024-05-09T20:03:02.560Z,15.41
2024-05-09T20:05:31.221Z,15.35
2024-05-09T20:07:58.307Z,15.26
2024-05-09T20:10:31.350Z,15.22
2024-05-09T20:13:00.339Z,15.03
2024-05-09T20:15:27.162Z,15.04
2024-05-09T20:17:54.346Z,14.92
2024-05-09T20:20:31.951Z,14.61
2024-05-09T20:23:03.861Z,14.77
2024-05-09T20:25:30.482Z,14.80
2024-05-09T20:27:57.077Z,14.80
2024-05-09T20:30:31.241Z,14.55
2024-05-09T20:33:00.518Z,14.70
2024-05-09T20:35:31.782Z,14.72
2024-05-09T20:37:58.781Z,14.65
2024-05-09T20:40:31.627Z,14.75
2024-05-09T20:43:02.042Z,14.80
2024-05-09T20:45:28.704Z,14.32
2024-05-09T20:47:56.431Z,14.76
2024-05-09T20:50:32.032Z,14.90
2024-05-09T20:53:05.234Z,14.76
2024-05-09T20:55:31.882Z,15.02
2024-05-09T20:57:58.703Z,15.08
2024-05-09T21:00:34.628Z,15.12
2024-05-09T21:03:07.204Z,15.17
2024-05-09T21:05:35.048Z,15.11
2024-05-09T21:08:02.138Z,15.19
2024-05-09T21:10:32.801Z,15.31
2024-05-09T21:13:01.659Z,15.39
2024-05-09T21:15:28.858Z,15.42
2024-05-09T21:17:55.473Z,15.33
2024-05-09T21:20:28.755Z,15.44
2024-05-09T21:22:58.335Z,15.43
2024-05-09T21:25:24.976Z,15.44
2024-05-09T21:27:51.844Z,15.44
2024-05-09T21:30:27.766Z,15.35
2024-05-09T21:33:04.729Z,15.48
2024-05-09T21:35:31.559Z,15.48
2024-05-09T21:37:58.256Z,15.42
2024-05-09T21:40:31.571Z,15.52
2024-05-09T21:43:01.513Z,15.47
2024-05-09T21:45:28.149Z,15.51
2024-05-09T21:47:55.119Z,15.44
2024-05-09T21:50:28.202Z,15.48
2024-05-09T21:53:02.015Z,15.47
2024-05-09T21:55:28.606Z,15.45
2024-05-09T21:57:56.625Z,15.51
2024-05-09T22:00:29.232Z,15.32
2024-05-09T22:03:02.605Z,15.48
2024-05-09T22:05:29.720Z,15.50
2024-05-09T22:07:56.966Z,15.43
2024-05-09T22:10:30.495Z,15.43
2024-05-09T22:13:00.739Z,15.49
2024-05-09T22:15:27.457Z,15.49
2024-05-09T22:17:56.207Z,15.14
2024-05-09T22:20:32.820Z,15.44
2024-05-09T22:23:03.219Z,15.44
2024-05-09T22:25:31.140Z,15.41
2024-05-09T22:27:59.030Z,15.19
2024-05-09T22:30:34.229Z,15.39
2024-05-09T22:33:05.759Z,15.37
2024-05-09T22:35:32.882Z,15.19
2024-05-09T22:37:59.641Z,15.27
2024-05-09T22:40:38.092Z,15.32
2024-05-09T22:43:12.911Z,15.22
2024-05-09T22:45:39.735Z,15.30
2024-05-09T22:48:07.635Z,14.84
2024-05-09T22:50:34.736Z,15.14
2024-05-09T22:53:01.483Z,15.17
2024-05-09T22:55:28.310Z,15.12
2024-05-09T22:57:55.156Z,15.15
2024-05-09T23:00:29.459Z,14.86
2024-05-09T23:03:00.049Z,14.99
2024-05-09T23:05:26.978Z,14.53
2024-05-09T23:07:53.756Z,14.91
2024-05-09T23:10:27.909Z,14.74
2024-05-09T23:13:00.856Z,14.51
2024-05-09T23:15:27.581Z,14.31
2024-05-09T23:17:54.434Z,14.52
2024-05-09T23:20:30.063Z,14.54
2024-05-09T23:23:03.814Z,14.42
2024-05-09T23:25:30.472Z,14.46
2024-05-09T23:27:57.160Z,14.36
2024-05-09T23:30:33.362Z,14.34
2024-05-09T23:33:05.167Z,14.28
2024-05-09T23:35:31.904Z,13.88
2024-05-09T23:37:58.544Z,14.14
2024-05-09T23:40:36.659Z,14.02
2024-05-09T23:43:06.720Z,13.94
2024-05-09T23:45:33.724Z,13.90
2024-05-09T23:48:00.822Z,13.72
2024-05-09T23:50:34.396Z,13.56
2024-05-09T23:53:04.505Z,13.66
2024-05-09T23:55:32.093Z,13.50
2024-05-09T23:57:59.189Z,13.28
